sensor_id;sensor_type;location;lat;lon;timestamp;temperature;humidity
75130;HTU21D;63703;44.716;37.846;2023-02-15T00:01:07;1.78;81.33
75130;HTU21D;63703;44.716;37.846;2023-02-15T00:03:33;1.77;81.25
75130;HTU21D;63703;44.716;37.846;2023-02-15T00:05:59;1.80;81.37
75130;HTU21D;63703;44.716;37.846;2023-02-15T00:08:25;1.79;81.35
75130;HTU21D;63703;44.716;37.846;2023-02-15T00:10:51;1.79;81.36
75130;HTU21D;63703;44.716;37.846;2023-02-15T00:13:17;1.77;81.36
75130;HTU21D;63703;44.716;37.846;2023-02-15T00:15:43;1.75;81.41
75130;HTU21D;63703;44.716;37.846;2023-02-15T00:18:09;1.75;81.44
75130;HTU21D;63703;44.716;37.846;2023-02-15T00:20:35;1.71;81.46
75130;HTU21D;63703;44.716;37.846;2023-02-15T00:23:01;1.68;81.46
75130;HTU21D;63703;44.716;37.846;2023-02-15T00:25:27;1.66;81.51
75130;HTU21D;63703;44.716;37.846;2023-02-15T00:27:53;1.64;81.52
75130;HTU21D;63703;44.716;37.846;2023-02-15T00:30:19;1.63;81.52
75130;HTU21D;63703;44.716;37.846;2023-02-15T00:32:47;1.61;81.53
75130;HTU21D;63703;44.716;37.846;2023-02-15T00:35:13;1.57;81.51
75130;HTU21D;63703;44.716;37.846;2023-02-15T00:37:39;1.56;81.52
75130;HTU21D;63703;44.716;37.846;2023-02-15T00:40:05;1.54;81.49
75130;HTU21D;63703;44.716;37.846;2023-02-15T00:42:31;1.54;81.58
75130;HTU21D;63703;44.716;37.846;2023-02-15T00:44:57;1.55;81.53
75130;HTU21D;63703;44.716;37.846;2023-02-15T00:47:23;1.55;81.52
75130;HTU21D;63703;44.716;37.846;2023-02-15T00:49:50;1.54;81.49
75130;HTU21D;63703;44.716;37.846;2023-02-15T00:52:17;1.54;81.49
75130;HTU21D;63703;44.716;37.846;2023-02-15T00:54:43;1.55;81.44
75130;HTU21D;63703;44.716;37.846;2023-02-15T00:57:09;1.56;81.43
75130;HTU21D;63703;44.716;37.846;2023-02-15T00:59:35;1.58;81.46
75130;HTU21D;63703;44.716;37.846;2023-02-15T01:02:01;1.62;81.48
75130;HTU21D;63703;44.716;37.846;2023-02-15T01:04:28;1.63;81.45
75130;HTU21D;63703;44.716;37.846;2023-02-15T01:06:56;1.64;81.46
75130;HTU21D;63703;44.716;37.846;2023-02-15T01:09:22;1.64;81.45
75130;HTU21D;63703;44.716;37.846;2023-02-15T01:11:48;1.63;81.43
75130;HTU21D;63703;44.716;37.846;2023-02-15T01:14:14;1.61;81.42
75130;HTU21D;63703;44.716;37.846;2023-02-15T01:16:41;1.60;81.31
75130;HTU21D;63703;44.716;37.846;2023-02-15T01:19:06;1.58;81.26
75130;HTU21D;63703;44.716;37.846;2023-02-15T01:21:32;1.58;81.19
75130;HTU21D;63703;44.716;37.846;2023-02-15T01:24:00;1.58;81.13
75130;HTU21D;63703;44.716;37.846;2023-02-15T01:29:57;1.47;81.20
75130;HTU21D;63703;44.716;37.846;2023-02-15T01:32:23;1.42;81.31
75130;HTU21D;63703;44.716;37.846;2023-02-15T01:34:49;1.37;81.30
75130;HTU21D;63703;44.716;37.846;2023-02-15T01:37:15;1.34;81.29
75130;HTU21D;63703;44.716;37.846;2023-02-15T01:39:41;1.31;81.26
75130;HTU21D;63703;44.716;37.846;2023-02-15T01:42:11;1.27;81.25
75130;HTU21D;63703;44.716;37.846;2023-02-15T01:44:52;1.25;81.27
75130;HTU21D;63703;44.716;37.846;2023-02-15T01:47:49;1.21;81.28
75130;HTU21D;63703;44.716;37.846;2023-02-15T01:50:21;1.16;81.23
75130;HTU21D;63703;44.716;37.846;2023-02-15T01:53:03;1.11;81.29
75130;HTU21D;63703;44.716;37.846;2023-02-15T01:55:54;1.08;81.26
75130;HTU21D;63703;44.716;37.846;2023-02-15T01:58:19;1.04;81.23
75130;HTU21D;63703;44.716;37.846;2023-02-15T02:00:45;1.01;81.18
75130;HTU21D;63703;44.716;37.846;2023-02-15T02:03:12;0.96;81.14
75130;HTU21D;63703;44.716;37.846;2023-02-15T02:05:39;0.96;81.10
75130;HTU21D;63703;44.716;37.846;2023-02-15T02:08:07;1.01;81.06
75130;HTU21D;63703;44.716;37.846;2023-02-15T02:10:35;1.04;81.08
75130;HTU21D;63703;44.716;37.846;2023-02-15T02:13:04;1.08;81.10
75130;HTU21D;63703;44.716;37.846;2023-02-15T02:15:44;1.12;81.02
75130;HTU21D;63703;44.716;37.846;2023-02-15T02:32:14;1.16;81.10
75130;HTU21D;63703;44.716;37.846;2023-02-15T02:43:51;1.20;81.23
75130;HTU21D;63703;44.716;37.846;2023-02-15T02:46:07;1.21;81.19
75130;HTU21D;63703;44.716;37.846;2023-02-15T02:48:34;1.22;81.17
75130;HTU21D;63703;44.716;37.846;2023-02-15T02:51:00;1.26;81.26
75130;HTU21D;63703;44.716;37.846;2023-02-15T02:53:28;1.26;81.17
75130;HTU21D;63703;44.716;37.846;2023-02-15T02:56:03;1.28;81.12
75130;HTU21D;63703;44.716;37.846;2023-02-15T02:58:46;1.31;81.20
75130;HTU21D;63703;44.716;37.846;2023-02-15T03:03:51;1.31;81.10
75130;HTU21D;63703;44.716;37.846;2023-02-15T03:06:25;1.29;81.10
75130;HTU21D;63703;44.716;37.846;2023-02-15T03:09:15;1.29;81.18
75130;HTU21D;63703;44.716;37.846;2023-02-15T03:11:44;1.29;81.11
75130;HTU21D;63703;44.716;37.846;2023-02-15T03:14:14;1.29;81.20
75130;HTU21D;63703;44.716;37.846;2023-02-15T03:16:43;1.27;81.21
75130;HTU21D;63703;44.716;37.846;2023-02-15T03:19:19;1.26;81.28
75130;HTU21D;63703;44.716;37.846;2023-02-15T03:21:51;1.26;81.28
75130;HTU21D;63703;44.716;37.846;2023-02-15T03:24:36;1.26;81.37
75130;HTU21D;63703;44.716;37.846;2023-02-15T03:27:07;1.25;81.25
75130;HTU21D;63703;44.716;37.846;2023-02-15T03:29:34;1.25;81.25
75130;HTU21D;63703;44.716;37.846;2023-02-15T03:32:07;1.25;81.31
75130;HTU21D;63703;44.716;37.846;2023-02-15T03:34:35;1.24;81.22
75130;HTU21D;63703;44.716;37.846;2023-02-15T03:37:37;1.28;81.36
75130;HTU21D;63703;44.716;37.846;2023-02-15T03:40:26;1.29;81.28
75130;HTU21D;63703;44.716;37.846;2023-02-15T03:43:32;1.29;81.63
75130;HTU21D;63703;44.716;37.846;2023-02-15T03:46:22;1.27;81.65
75130;HTU21D;63703;44.716;37.846;2023-02-15T03:49:08;1.24;81.84
75130;HTU21D;63703;44.716;37.846;2023-02-15T03:51:38;1.23;81.67
75130;HTU21D;63703;44.716;37.846;2023-02-15T03:54:09;1.23;81.64
75130;HTU21D;63703;44.716;37.846;2023-02-15T03:56:38;1.24;81.63
75130;HTU21D;63703;44.716;37.846;2023-02-15T03:59:05;1.25;81.61
75130;HTU21D;63703;44.716;37.846;2023-02-15T04:04:47;1.16;81.69
75130;HTU21D;63703;44.716;37.846;2023-02-15T04:07:12;1.12;81.79
75130;HTU21D;63703;44.716;37.846;2023-02-15T04:09:38;1.11;81.83
75130;HTU21D;63703;44.716;37.846;2023-02-15T04:12:23;1.10;82.01
75130;HTU21D;63703;44.716;37.846;2023-02-15T04:14:48;1.08;81.88
75130;HTU21D;63703;44.716;37.846;2023-02-15T04:17:33;1.05;81.98
75130;HTU21D;63703;44.716;37.846;2023-02-15T04:19:59;1.04;81.99
75130;HTU21D;63703;44.716;37.846;2023-02-15T04:22:43;1.07;82.11
75130;HTU21D;63703;44.716;37.846;2023-02-15T04:25:28;1.07;82.02
75130;HTU21D;63703;44.716;37.846;2023-02-15T04:27:54;1.11;81.96
75130;HTU21D;63703;44.716;37.846;2023-02-15T04:30:24;1.17;82.00
75130;HTU21D;63703;44.716;37.846;2023-02-15T04:32:50;1.23;81.83
75130;HTU21D;63703;44.716;37.846;2023-02-15T04:35:17;1.26;81.87
75130;HTU21D;63703;44.716;37.846;2023-02-15T04:37:43;1.25;81.78
75130;HTU21D;63703;44.716;37.846;2023-02-15T04:40:12;1.24;81.76
75130;HTU21D;63703;44.716;37.846;2023-02-15T04:42:38;1.24;81.75
75130;HTU21D;63703;44.716;37.846;2023-02-15T04:45:04;1.25;81.68
75130;HTU21D;63703;44.716;37.846;2023-02-15T04:47:31;1.28;81.59
75130;HTU21D;63703;44.716;37.846;2023-02-15T04:49:57;1.34;81.53
75130;HTU21D;63703;44.716;37.846;2023-02-15T04:52:22;1.38;81.49
75130;HTU21D;63703;44.716;37.846;2023-02-15T04:54:48;1.36;81.55
75130;HTU21D;63703;44.716;37.846;2023-02-15T04:57:14;1.32;81.62
75130;HTU21D;63703;44.716;37.846;2023-02-15T04:59:40;1.28;81.74
75130;HTU21D;63703;44.716;37.846;2023-02-15T05:02:06;1.24;81.68
75130;HTU21D;63703;44.716;37.846;2023-02-15T05:04:32;1.22;81.66
75130;HTU21D;63703;44.716;37.846;2023-02-15T05:06:58;1.21;81.64
75130;HTU21D;63703;44.716;37.846;2023-02-15T05:09:24;1.21;81.61
75130;HTU21D;63703;44.716;37.846;2023-02-15T05:11:50;1.21;81.59
75130;HTU21D;63703;44.716;37.846;2023-02-15T05:14:16;1.22;81.59
75130;HTU21D;63703;44.716;37.846;2023-02-15T05:16:42;1.24;81.60
75130;HTU21D;63703;44.716;37.846;2023-02-15T05:19:08;1.27;81.56
75130;HTU21D;63703;44.716;37.846;2023-02-15T05:21:34;1.33;81.61
75130;HTU21D;63703;44.716;37.846;2023-02-15T05:24:00;1.36;81.66
75130;HTU21D;63703;44.716;37.846;2023-02-15T05:26:46;1.39;81.67
75130;HTU21D;63703;44.716;37.846;2023-02-15T05:29:30;1.43;81.65
75130;HTU21D;63703;44.716;37.846;2023-02-15T05:31:56;1.50;81.65
75130;HTU21D;63703;44.716;37.846;2023-02-15T05:34:22;1.58;81.65
75130;HTU21D;63703;44.716;37.846;2023-02-15T05:36:48;1.67;81.56
75130;HTU21D;63703;44.716;37.846;2023-02-15T05:39:14;1.77;81.43
75130;HTU21D;63703;44.716;37.846;2023-02-15T05:41:39;1.82;81.31
75130;HTU21D;63703;44.716;37.846;2023-02-15T05:44:05;1.82;81.29
75130;HTU21D;63703;44.716;37.846;2023-02-15T05:46:31;1.81;81.33
75130;HTU21D;63703;44.716;37.846;2023-02-15T05:48:57;1.79;81.37
75130;HTU21D;63703;44.716;37.846;2023-02-15T05:51:23;1.75;81.37
75130;HTU21D;63703;44.716;37.846;2023-02-15T05:53:49;1.72;81.36
75130;HTU21D;63703;44.716;37.846;2023-02-15T05:56:15;1.72;81.31
75130;HTU21D;63703;44.716;37.846;2023-02-15T05:58:41;1.70;81.25
75130;HTU21D;63703;44.716;37.846;2023-02-15T06:01:15;1.70;81.25
75130;HTU21D;63703;44.716;37.846;2023-02-15T06:03:44;1.68;81.26
75130;HTU21D;63703;44.716;37.846;2023-02-15T06:06:10;1.67;81.28
75130;HTU21D;63703;44.716;37.846;2023-02-15T06:08:37;1.68;81.28
75130;HTU21D;63703;44.716;37.846;2023-02-15T06:11:04;1.69;81.20
75130;HTU21D;63703;44.716;37.846;2023-02-15T06:13:32;1.71;81.14
75130;HTU21D;63703;44.716;37.846;2023-02-15T06:15:58;1.72;81.14
75130;HTU21D;63703;44.716;37.846;2023-02-15T06:18:25;1.73;81.18
75130;HTU21D;63703;44.716;37.846;2023-02-15T06:20:51;1.73;81.17
75130;HTU21D;63703;44.716;37.846;2023-02-15T06:23:17;1.77;81.20
75130;HTU21D;63703;44.716;37.846;2023-02-15T06:25:46;1.78;81.21
75130;HTU21D;63703;44.716;37.846;2023-02-15T06:28:13;1.81;81.20
75130;HTU21D;63703;44.716;37.846;2023-02-15T06:30:39;1.84;81.15
75130;HTU21D;63703;44.716;37.846;2023-02-15T06:33:05;1.90;81.12
75130;HTU21D;63703;44.716;37.846;2023-02-15T06:35:31;1.92;81.19
75130;HTU21D;63703;44.716;37.846;2023-02-15T06:37:57;1.93;81.14
75130;HTU21D;63703;44.716;37.846;2023-02-15T06:40:23;1.94;81.11
75130;HTU21D;63703;44.716;37.846;2023-02-15T06:42:49;1.98;81.04
75130;HTU21D;63703;44.716;37.846;2023-02-15T06:45:15;2.00;80.99
75130;HTU21D;63703;44.716;37.846;2023-02-15T06:47:41;2.05;80.92
75130;HTU21D;63703;44.716;37.846;2023-02-15T06:50:07;2.10;80.87
75130;HTU21D;63703;44.716;37.846;2023-02-15T06:52:33;2.12;80.78
75130;HTU21D;63703;44.716;37.846;2023-02-15T06:54:59;2.14;80.75
75130;HTU21D;63703;44.716;37.846;2023-02-15T06:57:25;2.19;80.74
75130;HTU21D;63703;44.716;37.846;2023-02-15T06:59:52;2.24;80.68
75130;HTU21D;63703;44.716;37.846;2023-02-15T07:02:18;2.24;80.64
75130;HTU21D;63703;44.716;37.846;2023-02-15T07:04:44;2.23;80.56
75130;HTU21D;63703;44.716;37.846;2023-02-15T07:07:11;2.23;80.58
75130;HTU21D;63703;44.716;37.846;2023-02-15T07:09:37;2.27;80.50
75130;HTU21D;63703;44.716;37.846;2023-02-15T07:12:04;2.37;80.49
75130;HTU21D;63703;44.716;37.846;2023-02-15T07:14:48;2.47;80.48
75130;HTU21D;63703;44.716;37.846;2023-02-15T07:17:14;2.65;80.36
75130;HTU21D;63703;44.716;37.846;2023-02-15T07:19:40;2.74;80.26
75130;HTU21D;63703;44.716;37.846;2023-02-15T07:22:06;2.83;80.17
75130;HTU21D;63703;44.716;37.846;2023-02-15T07:24:32;2.87;80.11
75130;HTU21D;63703;44.716;37.846;2023-02-15T07:26:58;2.99;80.11
75130;HTU21D;63703;44.716;37.846;2023-02-15T07:29:24;3.06;79.98
75130;HTU21D;63703;44.716;37.846;2023-02-15T07:31:50;3.09;79.91
75130;HTU21D;63703;44.716;37.846;2023-02-15T07:34:16;3.11;79.69
75130;HTU21D;63703;44.716;37.846;2023-02-15T07:36:42;3.18;79.60
75130;HTU21D;63703;44.716;37.846;2023-02-15T07:39:10;3.24;79.60
75130;HTU21D;63703;44.716;37.846;2023-02-15T07:41:36;3.32;79.37
75130;HTU21D;63703;44.716;37.846;2023-02-15T07:44:14;3.24;79.18
75130;HTU21D;63703;44.716;37.846;2023-02-15T07:46:40;3.19;78.98
75130;HTU21D;63703;44.716;37.846;2023-02-15T07:49:06;3.15;78.82
75130;HTU21D;63703;44.716;37.846;2023-02-15T07:51:32;3.16;78.81
75130;HTU21D;63703;44.716;37.846;2023-02-15T07:53:58;3.20;78.69
75130;HTU21D;63703;44.716;37.846;2023-02-15T07:56:24;3.28;78.47
75130;HTU21D;63703;44.716;37.846;2023-02-15T07:58:50;3.39;78.08
75130;HTU21D;63703;44.716;37.846;2023-02-15T08:01:21;3.55;77.98
75130;HTU21D;63703;44.716;37.846;2023-02-15T08:03:47;3.73;77.72
75130;HTU21D;63703;44.716;37.846;2023-02-15T08:06:13;3.89;77.51
75130;HTU21D;63703;44.716;37.846;2023-02-15T08:08:41;3.92;77.14
75130;HTU21D;63703;44.716;37.846;2023-02-15T08:13:53;3.84;77.23
75130;HTU21D;63703;44.716;37.846;2023-02-15T08:16:23;4.00;77.23
75130;HTU21D;63703;44.716;37.846;2023-02-15T08:18:49;4.34;77.12
75130;HTU21D;63703;44.716;37.846;2023-02-15T08:21:15;4.62;76.46
75130;HTU21D;63703;44.716;37.846;2023-02-15T08:23:41;4.81;76.21
75130;HTU21D;63703;44.716;37.846;2023-02-15T08:26:06;5.02;75.86
75130;HTU21D;63703;44.716;37.846;2023-02-15T08:28:32;5.19;75.73
75130;HTU21D;63703;44.716;37.846;2023-02-15T08:31:09;5.30;75.17
75130;HTU21D;63703;44.716;37.846;2023-02-15T08:33:38;5.38;74.98
75130;HTU21D;63703;44.716;37.846;2023-02-15T08:36:09;5.23;74.55
75130;HTU21D;63703;44.716;37.846;2023-02-15T08:38:35;5.04;74.66
75130;HTU21D;63703;44.716;37.846;2023-02-15T08:41:25;5.02;74.26
75130;HTU21D;63703;44.716;37.846;2023-02-15T08:43:53;5.16;74.53
75130;HTU21D;63703;44.716;37.846;2023-02-15T08:46:20;5.23;74.64
75130;HTU21D;63703;44.716;37.846;2023-02-15T08:48:46;5.49;74.12
75130;HTU21D;63703;44.716;37.846;2023-02-15T08:53:40;5.67;73.19
75130;HTU21D;63703;44.716;37.846;2023-02-15T08:56:07;5.64;72.81
75130;HTU21D;63703;44.716;37.846;2023-02-15T08:58:34;5.50;72.47
75130;HTU21D;63703;44.716;37.846;2023-02-15T09:01:01;5.36;72.56
75130;HTU21D;63703;44.716;37.846;2023-02-15T09:03:29;5.24;72.71
75130;HTU21D;63703;44.716;37.846;2023-02-15T09:06:00;5.12;72.66
75130;HTU21D;63703;44.716;37.846;2023-02-15T09:08:27;5.38;73.70
75130;HTU21D;63703;44.716;37.846;2023-02-15T09:10:53;5.76;73.01
75130;HTU21D;63703;44.716;37.846;2023-02-15T09:13:20;6.30;72.84
75130;HTU21D;63703;44.716;37.846;2023-02-15T09:15:46;6.76;71.55
75130;HTU21D;63703;44.716;37.846;2023-02-15T09:18:12;6.95;71.04
75130;HTU21D;63703;44.716;37.846;2023-02-15T09:20:43;6.96;70.48
75130;HTU21D;63703;44.716;37.846;2023-02-15T09:23:10;6.86;70.37
75130;HTU21D;63703;44.716;37.846;2023-02-15T09:25:36;6.80;69.58
75130;HTU21D;63703;44.716;37.846;2023-02-15T09:28:01;6.72;69.57
75130;HTU21D;63703;44.716;37.846;2023-02-15T09:30:27;7.16;70.00
75130;HTU21D;63703;44.716;37.846;2023-02-15T09:32:53;7.41;68.91
75130;HTU21D;63703;44.716;37.846;2023-02-15T09:35:19;7.25;68.54
75130;HTU21D;63703;44.716;37.846;2023-02-15T09:37:45;7.47;68.94
75130;HTU21D;63703;44.716;37.846;2023-02-15T09:40:13;7.60;68.26
75130;HTU21D;63703;44.716;37.846;2023-02-15T09:42:48;7.42;67.46
75130;HTU21D;63703;44.716;37.846;2023-02-15T09:48:24;7.32;66.56
75130;HTU21D;63703;44.716;37.846;2023-02-15T09:51:24;7.49;67.04
75130;HTU21D;63703;44.716;37.846;2023-02-15T09:53:56;8.21;66.91
75130;HTU21D;63703;44.716;37.846;2023-02-15T09:56:33;8.70;63.87
75130;HTU21D;63703;44.716;37.846;2023-02-15T09:59:17;8.87;64.95
75130;HTU21D;63703;44.716;37.846;2023-02-15T10:01:57;9.48;64.56
75130;HTU21D;63703;44.716;37.846;2023-02-15T10:15:46;9.76;59.20
75130;HTU21D;63703;44.716;37.846;2023-02-15T10:18:49;9.42;59.87
75130;HTU21D;63703;44.716;37.846;2023-02-15T10:26:58;9.77;61.17
75130;HTU21D;63703;44.716;37.846;2023-02-15T10:29:37;10.30;60.12
75130;HTU21D;63703;44.716;37.846;2023-02-15T10:32:13;10.57;59.00
75130;HTU21D;63703;44.716;37.846;2023-02-15T10:34:54;11.04;57.39
75130;HTU21D;63703;44.716;37.846;2023-02-15T10:50:53;12.47;53.97
75130;HTU21D;63703;44.716;37.846;2023-02-15T10:54:01;12.94;51.53
75130;HTU21D;63703;44.716;37.846;2023-02-15T10:56:38;13.40;48.96
75130;HTU21D;63703;44.716;37.846;2023-02-15T11:07:26;14.19;47.47
75130;HTU21D;63703;44.716;37.846;2023-02-15T11:10:14;14.98;46.09
75130;HTU21D;63703;44.716;37.846;2023-02-15T11:12:45;15.59;44.91
75130;HTU21D;63703;44.716;37.846;2023-02-15T11:15:18;15.98;42.65
75130;HTU21D;63703;44.716;37.846;2023-02-15T11:17:53;16.25;41.44
75130;HTU21D;63703;44.716;37.846;2023-02-15T11:20:38;16.80;40.00
75130;HTU21D;63703;44.716;37.846;2023-02-15T11:23:16;16.88;37.98
75130;HTU21D;63703;44.716;37.846;2023-02-15T11:25:46;17.39;39.13
75130;HTU21D;63703;44.716;37.846;2023-02-15T11:28:34;17.82;36.82
75130;HTU21D;63703;44.716;37.846;2023-02-15T11:31:13;18.21;36.52
75130;HTU21D;63703;44.716;37.846;2023-02-15T11:33:46;17.91;36.64
75130;HTU21D;63703;44.716;37.846;2023-02-15T11:36:16;17.67;36.67
75130;HTU21D;63703;44.716;37.846;2023-02-15T11:38:44;18.44;35.53
75130;HTU21D;63703;44.716;37.846;2023-02-15T11:41:13;19.09;33.73
75130;HTU21D;63703;44.716;37.846;2023-02-15T11:43:51;19.65;32.38
75130;HTU21D;63703;44.716;37.846;2023-02-15T11:46:19;20.19;32.23
75130;HTU21D;63703;44.716;37.846;2023-02-15T11:48:47;20.20;32.14
75130;HTU21D;63703;44.716;37.846;2023-02-15T11:51:19;20.09;31.37
75130;HTU21D;63703;44.716;37.846;2023-02-15T11:53:46;20.09;31.70
75130;HTU21D;63703;44.716;37.846;2023-02-15T11:56:17;18.68;33.21
75130;HTU21D;63703;44.716;37.846;2023-02-15T11:58:50;16.78;35.49
75130;HTU21D;63703;44.716;37.846;2023-02-15T12:01:30;14.99;37.61
75130;HTU21D;63703;44.716;37.846;2023-02-15T12:09:50;12.28;40.26
75130;HTU21D;63703;44.716;37.846;2023-02-15T12:12:24;11.40;41.45
75130;HTU21D;63703;44.716;37.846;2023-02-15T12:14:55;10.74;42.54
75130;HTU21D;63703;44.716;37.846;2023-02-15T12:17:24;10.33;43.26
75130;HTU21D;63703;44.716;37.846;2023-02-15T12:19:53;9.74;43.81
75130;HTU21D;63703;44.716;37.846;2023-02-15T12:22:27;9.30;44.52
75130;HTU21D;63703;44.716;37.846;2023-02-15T12:25:00;8.80;45.22
75130;HTU21D;63703;44.716;37.846;2023-02-15T12:27:28;8.44;45.91
75130;HTU21D;63703;44.716;37.846;2023-02-15T12:32:35;7.61;47.07
75130;HTU21D;63703;44.716;37.846;2023-02-15T12:35:39;7.02;48.07
75130;HTU21D;63703;44.716;37.846;2023-02-15T12:40:37;6.41;49.21
75130;HTU21D;63703;44.716;37.846;2023-02-15T12:43:03;6.05;49.77
75130;HTU21D;63703;44.716;37.846;2023-02-15T12:45:37;5.79;50.37
75130;HTU21D;63703;44.716;37.846;2023-02-15T12:48:10;5.66;50.90
75130;HTU21D;63703;44.716;37.846;2023-02-15T12:50:47;5.63;51.18
75130;HTU21D;63703;44.716;37.846;2023-02-15T12:53:15;5.42;51.66
75130;HTU21D;63703;44.716;37.846;2023-02-15T12:55:53;5.34;52.03
75130;HTU21D;63703;44.716;37.846;2023-02-15T12:58:24;5.25;52.21
75130;HTU21D;63703;44.716;37.846;2023-02-15T13:03:40;5.05;52.93
75130;HTU21D;63703;44.716;37.846;2023-02-15T13:06:17;4.87;53.30
75130;HTU21D;63703;44.716;37.846;2023-02-15T13:08:49;4.71;53.68
75130;HTU21D;63703;44.716;37.846;2023-02-15T13:11:30;4.62;54.07
75130;HTU21D;63703;44.716;37.846;2023-02-15T13:14:03;4.51;54.35
75130;HTU21D;63703;44.716;37.846;2023-02-15T13:18:58;4.33;55.19
75130;HTU21D;63703;44.716;37.846;2023-02-15T13:21:32;4.21;55.00
75130;HTU21D;63703;44.716;37.846;2023-02-15T13:24:17;4.10;55.52
75130;HTU21D;63703;44.716;37.846;2023-02-15T13:26:43;3.95;55.77
75130;HTU21D;63703;44.716;37.846;2023-02-15T13:29:22;3.93;56.08
75130;HTU21D;63703;44.716;37.846;2023-02-15T13:31:50;3.82;56.45
75130;HTU21D;63703;44.716;37.846;2023-02-15T13:39:27;3.54;56.77
75130;HTU21D;63703;44.716;37.846;2023-02-15T13:42:16;3.44;57.07
75130;HTU21D;63703;44.716;37.846;2023-02-15T13:55:40;3.11;57.99
75130;HTU21D;63703;44.716;37.846;2023-02-15T14:03:48;2.97;58.76
75130;HTU21D;63703;44.716;37.846;2023-02-15T14:06:25;2.95;58.61
75130;HTU21D;63703;44.716;37.846;2023-02-15T14:19:58;2.78;59.36
75130;HTU21D;63703;44.716;37.846;2023-02-15T14:22:45;2.74;59.66
75130;HTU21D;63703;44.716;37.846;2023-02-15T14:25:38;2.70;59.90
75130;HTU21D;63703;44.716;37.846;2023-02-15T14:31:25;2.60;60.01
75130;HTU21D;63703;44.716;37.846;2023-02-15T14:33:56;2.53;60.14
75130;HTU21D;63703;44.716;37.846;2023-02-15T14:36:22;2.49;60.36
75130;HTU21D;63703;44.716;37.846;2023-02-15T14:45:05;2.22;60.87
75130;HTU21D;63703;44.716;37.846;2023-02-15T14:47:43;2.16;61.43
75130;HTU21D;63703;44.716;37.846;2023-02-15T14:58:46;2.00;62.18
75130;HTU21D;63703;44.716;37.846;2023-02-15T15:01:39;1.96;61.92
75130;HTU21D;63703;44.716;37.846;2023-02-15T15:04:12;1.90;61.76
75130;HTU21D;63703;44.716;37.846;2023-02-15T15:06:41;1.85;61.92
75130;HTU21D;63703;44.716;37.846;2023-02-15T15:09:21;1.82;62.17
75130;HTU21D;63703;44.716;37.846;2023-02-15T15:11:50;1.80;62.12
75130;HTU21D;63703;44.716;37.846;2023-02-15T15:17:02;1.70;62.28
75130;HTU21D;63703;44.716;37.846;2023-02-15T15:22:21;1.58;62.76
75130;HTU21D;63703;44.716;37.846;2023-02-15T15:24:50;1.51;62.60
75130;HTU21D;63703;44.716;37.846;2023-02-15T15:27:39;1.46;63.03
75130;HTU21D;63703;44.716;37.846;2023-02-15T15:44:48;1.22;63.78
75130;HTU21D;63703;44.716;37.846;2023-02-15T15:47:32;1.16;63.60
75130;HTU21D;63703;44.716;37.846;2023-02-15T15:50:00;1.07;63.69
75130;HTU21D;63703;44.716;37.846;2023-02-15T15:52:27;1.02;63.76
75130;HTU21D;63703;44.716;37.846;2023-02-15T15:55:03;0.99;64.08
75130;HTU21D;63703;44.716;37.846;2023-02-15T15:57:49;0.92;63.98
75130;HTU21D;63703;44.716;37.846;2023-02-15T16:05:46;0.71;64.27
75130;HTU21D;63703;44.716;37.846;2023-02-15T16:08:13;0.66;64.37
75130;HTU21D;63703;44.716;37.846;2023-02-15T16:10:50;0.61;64.38
75130;HTU21D;63703;44.716;37.846;2023-02-15T16:13:17;0.55;64.53
75130;HTU21D;63703;44.716;37.846;2023-02-15T16:15:45;0.52;64.56
75130;HTU21D;63703;44.716;37.846;2023-02-15T16:18:21;0.50;64.72
75130;HTU21D;63703;44.716;37.846;2023-02-15T16:20:57;0.48;64.77
75130;HTU21D;63703;44.716;37.846;2023-02-15T16:29:29;0.34;65.02
75130;HTU21D;63703;44.716;37.846;2023-02-15T16:32:21;0.33;65.07
75130;HTU21D;63703;44.716;37.846;2023-02-15T16:34:52;0.33;65.37
75130;HTU21D;63703;44.716;37.846;2023-02-15T16:37:21;0.29;65.28
75130;HTU21D;63703;44.716;37.846;2023-02-15T16:39:49;0.28;65.43
75130;HTU21D;63703;44.716;37.846;2023-02-15T16:42:17;0.28;65.45
75130;HTU21D;63703;44.716;37.846;2023-02-15T16:44:45;0.27;66.01
75130;HTU21D;63703;44.716;37.846;2023-02-15T16:47:23;0.25;65.65
75130;HTU21D;63703;44.716;37.846;2023-02-15T16:49:52;0.20;65.62
75130;HTU21D;63703;44.716;37.846;2023-02-15T16:52:24;0.18;65.82
75130;HTU21D;63703;44.716;37.846;2023-02-15T16:54:53;0.09;65.86
75130;HTU21D;63703;44.716;37.846;2023-02-15T16:57:22;0.04;65.69
75130;HTU21D;63703;44.716;37.846;2023-02-15T16:59:51;0.01;65.87
75130;HTU21D;63703;44.716;37.846;2023-02-15T17:02:26;0.01;66.06
75130;HTU21D;63703;44.716;37.846;2023-02-15T17:07:41;-0.01;66.07
75130;HTU21D;63703;44.716;37.846;2023-02-15T17:12:54;-0.12;66.32
75130;HTU21D;63703;44.716;37.846;2023-02-15T17:15:39;-0.12;66.36
75130;HTU21D;63703;44.716;37.846;2023-02-15T17:18:21;-0.17;66.30
75130;HTU21D;63703;44.716;37.846;2023-02-15T17:20:51;-0.19;66.37
75130;HTU21D;63703;44.716;37.846;2023-02-15T17:23:42;-0.16;66.66
75130;HTU21D;63703;44.716;37.846;2023-02-15T17:26:19;-0.22;66.60
75130;HTU21D;63703;44.716;37.846;2023-02-15T17:28:48;-0.29;66.40
75130;HTU21D;63703;44.716;37.846;2023-02-15T17:31:17;-0.34;66.59
75130;HTU21D;63703;44.716;37.846;2023-02-15T17:33:43;-0.31;66.78
75130;HTU21D;63703;44.716;37.846;2023-02-15T17:38:38;-0.27;66.81
75130;HTU21D;63703;44.716;37.846;2023-02-15T17:41:04;-0.30;66.81
75130;HTU21D;63703;44.716;37.846;2023-02-15T17:43:30;-0.31;66.87
75130;HTU21D;63703;44.716;37.846;2023-02-15T17:45:57;-0.31;66.91
75130;HTU21D;63703;44.716;37.846;2023-02-15T17:48:32;-0.31;66.99
75130;HTU21D;63703;44.716;37.846;2023-02-15T17:51:03;-0.35;67.01
75130;HTU21D;63703;44.716;37.846;2023-02-15T17:53:30;-0.36;67.01
75130;HTU21D;63703;44.716;37.846;2023-02-15T17:55:56;-0.38;67.04
75130;HTU21D;63703;44.716;37.846;2023-02-15T17:58:22;-0.40;67.15
75130;HTU21D;63703;44.716;37.846;2023-02-15T18:00:54;-0.40;67.15
75130;HTU21D;63703;44.716;37.846;2023-02-15T18:06:27;-0.47;67.23
75130;HTU21D;63703;44.716;37.846;2023-02-15T18:09:13;-0.53;67.33
75130;HTU21D;63703;44.716;37.846;2023-02-15T18:11:58;-0.56;67.39
75130;HTU21D;63703;44.716;37.846;2023-02-15T18:14:24;-0.58;67.56
75130;HTU21D;63703;44.716;37.846;2023-02-15T18:16:50;-0.56;67.75
75130;HTU21D;63703;44.716;37.846;2023-02-15T18:19:26;-0.53;68.00
75130;HTU21D;63703;44.716;37.846;2023-02-15T18:21:52;-0.53;67.88
75130;HTU21D;63703;44.716;37.846;2023-02-15T18:24:23;-0.53;67.97
75130;HTU21D;63703;44.716;37.846;2023-02-15T18:26:49;-0.54;68.12
75130;HTU21D;63703;44.716;37.846;2023-02-15T18:29:15;-0.51;68.23
75130;HTU21D;63703;44.716;37.846;2023-02-15T18:31:43;-0.49;68.22
75130;HTU21D;63703;44.716;37.846;2023-02-15T18:34:21;-0.45;68.55
75130;HTU21D;63703;44.716;37.846;2023-02-15T18:36:48;-0.47;68.39
75130;HTU21D;63703;44.716;37.846;2023-02-15T18:39:48;-0.50;68.73
75130;HTU21D;63703;44.716;37.846;2023-02-15T18:42:33;-0.51;68.94
75130;HTU21D;63703;44.716;37.846;2023-02-15T18:45:14;-0.54;68.62